Time;durP1;ratioP1;P1;durP2;ratioP2;P2;SDS_P1;SDS_P2;PMS_P1;PMS_P2;Temp;Humidity;BMP_temperature;BMP_pressure;BME280_temperature;BME280_humidity;BME280_pressure;Samples;Min_cycle;Max_cycle;Signal;HPM_P1;HPM_P2
2022/08/08 00:00:36;;;;;;;8.30;5.20;;;;;;;17.73;61.04;102369.22;5297646;28;20553;-71
2022/08/08 00:03:28;;;;;;;8.43;5.53;;;;;;;17.92;59.63;102363.53;5298263;28;20423;-71
2022/08/08 00:06:28;;;;;;;15.10;7.07;;;;;;;18.07;59.49;102366.94;5298012;28;20043;-71
2022/08/08 00:09:25;;;;;;;12.37;6.00;;;;;;;17.77;61.05;102366.25;5279553;28;20192;-71
2022/08/08 00:12:00;;;;;;;9.90;5.83;;;;;;;17.49;62.43;102362.75;5255097;28;20086;-71
2022/08/08 00:14:48;;;;;;;8.60;6.53;;;;;;;17.57;61.42;102369.38;5297688;28;20419;-71
2022/08/08 00:17:28;;;;;;;7.70;6.00;;;;;;;17.23;63.28;102367.09;5279440;28;20110;-71
2022/08/08 00:20:04;;;;;;;7.67;5.93;;;;;;;17.14;63.37;102361.44;5297500;28;20426;-71
2022/08/08 00:22:41;;;;;;;9.73;6.13;;;;;;;17.29;62.92;102366.72;5297443;28;20043;-71
2022/08/08 00:25:25;;;;;;;10.00;6.53;;;;;;;17.52;62.14;102367.03;5296683;28;20059;-71
2022/08/08 00:28:00;;;;;;;8.10;5.80;;;;;;;17.66;61.77;102376.72;5297535;28;20036;-71
2022/08/08 00:30:35;;;;;;;8.97;6.53;;;;;;;17.47;62.72;102377.91;5297185;28;20031;-70
2022/08/08 00:33:14;;;;;;;11.13;6.87;;;;;;;17.44;62.47;102371.97;5297557;28;20070;-70
2022/08/08 00:35:53;;;;;;;10.87;6.83;;;;;;;17.28;62.91;102375.59;5297258;28;20078;-70
2022/08/08 00:39:00;;;;;;;10.70;6.60;;;;;;;17.54;61.57;102378.38;5297044;28;20103;-70
2022/08/08 00:41:32;;;;;;;12.87;8.37;;;;;;;17.40;62.79;102380.09;5296090;28;20695;-70
2022/08/08 00:44:46;;;;;;;9.20;6.70;;;;;;;17.41;61.88;102371.22;5297080;28;20028;-70
2022/08/08 00:47:20;;;;;;;9.37;7.07;;;;;;;16.93;64.74;102372.41;5296970;28;20025;-71
2022/08/08 00:50:23;;;;;;;15.52;8.23;;;;;;;17.06;64.05;102376.94;5278897;28;20047;-70
2022/08/08 00:53:15;;;;;;;10.23;7.20;;;;;;;16.92;64.95;102364.56;5297198;28;20031;-70
2022/08/08 00:56:13;;;;;;;9.80;7.53;;;;;;;16.91;64.26;102363.72;5296092;28;20040;-71
2022/08/08 00:59:12;;;;;;;10.17;7.80;;;;;;;16.87;64.90;102356.94;5277621;28;20054;-71
2022/08/08 01:02:10;;;;;;;12.30;7.90;;;;;;;16.79;64.94;102359.22;5296329;28;20043;-71
2022/08/08 01:05:00;;;;;;;13.13;8.47;;;;;;;16.57;66.63;102360.53;5296560;28;20028;-70
2022/08/08 01:08:04;;;;;;;8.67;7.53;;;;;;;16.69;65.22;102365.06;5296686;28;20047;-70
2022/08/08 01:11:06;;;;;;;9.10;7.47;;;;;;;16.73;65.29;102363.09;5295313;28;20101;-70
2022/08/08 01:13:55;;;;;;;8.87;7.73;;;;;;;17.02;64.15;102359.53;5296012;23;20056;-70
2022/08/08 01:16:54;;;;;;;11.67;7.33;;;;;;;16.88;64.80;102353.34;5275478;28;20032;-70
2022/08/08 01:19:47;;;;;;;11.63;7.27;;;;;;;17.06;63.64;102363.72;5273736;28;20021;-71
2022/08/08 01:22:39;;;;;;;11.13;7.40;;;;;;;16.93;64.68;102356.53;5274008;28;20037;-70
2022/08/08 01:25:41;;;;;;;9.97;7.80;;;;;;;17.00;64.39;102358.81;5274251;28;20024;-70
2022/08/08 01:28:56;;;;;;;11.70;7.83;;;;;;;16.98;64.39;102347.47;5274865;28;20506;-70
2022/08/08 01:31:59;;;;;;;11.50;7.60;;;;;;;16.96;64.31;102344.94;5273610;28;20369;-69
2022/08/08 01:35:22;;;;;;;10.73;7.83;;;;;;;16.99;63.89;102349.16;5274721;28;20028;-70
2022/08/08 01:38:09;;;;;;;11.97;8.17;;;;;;;16.54;66.71;102361.59;5275376;28;20484;-69
2022/08/08 01:41:23;;;;;;;9.63;8.20;;;;;;;16.72;65.56;102358.72;5289471;28;20863;-70
2022/08/08 01:44:20;;;;;;;10.63;7.80;;;;;;;16.54;66.59;102344.88;5275098;28;20538;-70
2022/08/08 01:47:04;;;;;;;11.73;9.27;;;;;;;16.70;65.68;102350.06;5273688;28;20029;-70
2022/08/08 01:49:47;;;;;;;14.60;8.60;;;;;;;16.67;65.86;102345.78;5274799;28;20488;-69
2022/08/08 01:52:46;;;;;;;9.13;8.23;;;;;;;16.67;65.65;102352.88;5273252;28;20481;-70
2022/08/08 01:55:49;;;;;;;12.23;8.17;;;;;;;16.67;65.45;102351.09;5273903;28;20062;-70
2022/08/08 01:58:39;;;;;;;13.13;8.63;;;;;;;16.36;67.15;102346.81;5274523;28;20020;-70
2022/08/08 02:01:51;;;;;;;12.20;8.30;;;;;;;16.26;67.57;102359.75;5274691;28;20024;-70
2022/08/08 02:04:41;;;;;;;15.27;8.70;;;;;;;16.38;67.46;102366.97;5274904;28;20556;-70
2022/08/08 02:07:22;;;;;;;9.90;8.50;;;;;;;16.29;68.13;102352.50;5274866;28;20025;-70
2022/08/08 02:10:18;;;;;;;14.67;9.50;;;;;;;16.18;68.88;102361.06;5273630;28;20218;-70
2022/08/08 02:12:56;;;;;;;12.00;8.03;;;;;;;15.94;69.94;102352.78;5274580;28;20032;-70
2022/08/08 02:15:44;;;;;;;17.97;9.13;;;;;;;16.18;69.29;102361.06;5274548;28;20028;-70
2022/08/08 02:18:35;;;;;;;12.10;9.40;;;;;;;16.14;69.31;102359.56;5274431;28;20028;-70
2022/08/08 02:24:13;;;;;;;14.20;9.40;;;;;;;15.80;71.69;102356.22;5278732;28;20508;-70
2022/08/08 02:27:23;;;;;;;11.80;9.90;;;;;;;15.94;70.38;102363.34;5277685;28;20105;-71
2022/08/08 02:30:04;;;;;;;14.00;8.37;;;;;;;15.87;71.22;102354.91;5277439;28;20052;-70
2022/08/08 02:32:57;;;;;;;13.60;10.07;;;;;;;15.94;70.88;102360.69;5278542;28;20064;-70
2022/08/08 02:35:33;;;;;;;9.57;8.50;;;;;;;16.06;70.33;102356.50;5276854;28;20068;-70
2022/08/08 02:38:20;;;;;;;12.77;9.47;;;;;;;15.78;72.18;102364.22;5278715;28;20037;-70
2022/08/08 02:41:13;;;;;;;14.77;9.13;;;;;;;16.06;69.94;102360.00;5277552;28;20024;-70
2022/08/08 02:44:08;;;;;;;12.20;8.33;;;;;;;16.12;69.57;102361.44;5278102;28;20020;-71
2022/08/08 02:46:57;;;;;;;14.70;10.97;;;;;;;16.01;70.74;102358.56;5277863;28;20431;-70
2022/08/08 02:49:51;;;;;;;12.63;9.47;;;;;;;15.75;71.93;102356.50;5277650;28;20035;-71
2022/08/08 02:52:46;;;;;;;12.60;9.23;;;;;;;15.64;72.24;102356.28;5277796;28;20043;-70
2022/08/08 02:56:02;;;;;;;15.07;10.13;;;;;;;15.56;73.51;102351.41;5277045;28;20036;-71
2022/08/08 02:59:15;;;;;;;13.30;8.43;;;;;;;15.76;71.46;102352.06;5276249;28;20021;-70
2022/08/08 03:02:06;;;;;;;12.87;9.10;;;;;;;15.75;71.59;102353.00;5277999;28;20029;-71
2022/08/08 03:05:08;;;;;;;16.10;10.00;;;;;;;15.72;71.75;102360.19;5277607;28;20108;-71
2022/08/08 03:08:10;;;;;;;15.97;9.60;;;;;;;15.63;71.99;102360.69;5277413;28;20020;-70
2022/08/08 03:11:19;;;;;;;12.47;9.97;;;;;;;15.43;73.80;102361.84;5275362;28;20040;-70
2022/08/08 03:14:28;;;;;;;14.57;8.90;;;;;;;15.60;72.56;102363.50;5276194;28;20419;-71
2022/08/08 03:17:14;;;;;;;14.20;9.73;;;;;;;15.63;73.10;102357.19;5277731;28;20035;-70
2022/08/08 03:19:58;;;;;;;15.47;10.03;;;;;;;15.62;73.00;102361.66;5259735;28;20020;-71
2022/08/08 03:22:30;;;;;;;12.10;9.80;;;;;;;15.57;73.94;102364.53;5277544;28;20024;-70
2022/08/08 03:25:04;;;;;;;13.87;10.77;;;;;;;15.56;74.37;102361.97;5276934;28;20023;-70
2022/08/08 03:28:05;;;;;;;13.20;9.07;;;;;;;15.62;73.10;102359.00;5277374;28;20055;-70
2022/08/08 03:30:37;;;;;;;12.83;9.90;;;;;;;15.61;73.44;102362.56;5291864;28;20037;-71
2022/08/08 03:33:17;;;;;;;14.13;10.03;;;;;;;15.47;74.11;102364.22;5275983;28;20028;-70
2022/08/08 03:35:50;;;;;;;13.43;9.73;;;;;;;15.39;74.94;102374.34;5276070;28;20031;-70
2022/08/08 03:38:22;;;;;;;14.70;10.03;;;;;;;15.37;75.15;102368.31;5276882;28;20023;-70
2022/08/08 03:40:54;;;;;;;12.30;10.43;;;;;;;14.99;77.38;102378.25;5276743;28;20025;-70
2022/08/08 03:43:25;;;;;;;13.50;9.77;;;;;;;15.34;75.59;102374.59;5276631;28;20025;-69
2022/08/08 03:45:57;;;;;;;11.10;9.40;;;;;;;15.30;75.91;102375.72;5277684;28;20028;-69
2022/08/08 03:48:28;;;;;;;14.60;10.20;;;;;;;15.11;77.38;102378.53;5276984;28;20141;-69
2022/08/08 03:50:59;;;;;;;9.83;8.83;;;;;;;15.22;77.07;102378.78;5277750;28;20029;-70
2022/08/08 03:53:35;;;;;;;16.50;9.90;;;;;;;15.29;76.49;102381.09;5276720;28;20039;-70
2022/08/08 03:56:06;;;;;;;11.10;9.47;;;;;;;15.14;77.02;102374.84;5275250;28;20029;-70
2022/08/08 03:58:38;;;;;;;13.33;10.17;;;;;;;14.96;78.97;102378.41;5276920;28;20039;-70
2022/08/08 04:01:09;;;;;;;14.47;10.27;;;;;;;15.07;77.91;102379.63;5276995;28;20033;-70
2022/08/08 04:03:44;;;;;;;11.70;10.50;;;;;;;14.69;80.65;102380.72;5276725;28;20469;-70
2022/08/08 04:06:16;;;;;;;12.90;9.87;;;;;;;14.94;78.57;102382.09;5277084;28;20028;-71
2022/08/08 04:08:47;;;;;;;12.17;9.43;;;;;;;14.67;80.24;102385.22;5276049;28;20035;-70
2022/08/08 04:11:18;;;;;;;10.90;9.80;;;;;;;14.84;79.32;102397.53;5276028;28;20104;-71
2022/08/08 04:13:50;;;;;;;12.50;10.40;;;;;;;14.89;79.08;102398.13;5292277;28;20060;-70
2022/08/08 04:16:22;;;;;;;18.03;10.10;;;;;;;15.09;78.32;102389.16;5276960;28;20029;-70
2022/08/08 04:18:54;;;;;;;11.80;10.27;;;;;;;15.13;78.08;102395.13;5277033;28;20503;-70
2022/08/08 04:21:25;;;;;;;11.60;10.30;;;;;;;15.16;77.60;102392.31;5276467;28;20042;-70
2022/08/08 04:23:56;;;;;;;14.47;10.40;;;;;;;15.18;77.67;102385.16;5277151;28;20025;-71
2022/08/08 04:26:28;;;;;;;14.43;10.63;;;;;;;15.17;78.00;102391.38;5275593;28;20032;-71
2022/08/08 04:28:59;;;;;;;13.10;10.23;;;;;;;14.84;79.75;102384.34;5275805;28;20039;-71
2022/08/08 04:31:30;;;;;;;15.17;10.83;;;;;;;15.08;78.58;102397.16;5275879;28;20115;-71
2022/08/08 04:34:01;;;;;;;12.47;10.80;;;;;;;14.87;78.86;102374.47;5275493;28;20025;-71
2022/08/08 04:36:33;;;;;;;12.23;11.03;;;;;;;14.88;80.20;102397.31;5276361;28;20039;-70
2022/08/08 04:39:04;;;;;;;17.70;10.73;;;;;;;15.05;79.32;102402.59;5276307;28;20368;-69
2022/08/08 04:41:35;;;;;;;15.07;10.87;;;;;;;14.98;79.71;102392.38;5275019;28;20441;-70
2022/08/08 04:44:07;;;;;;;12.23;10.37;;;;;;;14.99;79.78;102409.06;5276332;28;20085;-69
2022/08/08 04:46:38;;;;;;;17.10;13.00;;;;;;;14.80;81.29;102406.53;5274589;28;20089;-70
2022/08/08 04:49:09;;;;;;;17.23;12.33;;;;;;;14.74;82.34;102410.34;5274594;28;20031;-70
2022/08/08 04:51:40;;;;;;;13.93;12.47;;;;;;;14.75;82.52;102415.53;5274432;28;20025;-70
2022/08/08 04:54:12;;;;;;;14.73;12.83;;;;;;;14.62;83.69;102422.38;5275874;28;20021;-70
2022/08/08 04:56:43;;;;;;;16.30;11.57;;;;;;;14.94;82.45;102425.13;5274528;28;20036;-73
2022/08/08 04:59:14;;;;;;;15.30;12.80;;;;;;;15.04;81.49;102424.63;5275750;28;20029;-70
2022/08/08 05:01:46;;;;;;;13.63;10.77;;;;;;;15.01;81.80;102438.84;5274234;28;20024;-70
2022/08/08 05:04:17;;;;;;;13.70;11.97;;;;;;;14.91;82.47;102433.19;5275362;28;20515;-70
2022/08/08 05:06:48;;;;;;;13.70;11.70;;;;;;;15.02;81.50;102418.59;5274271;28;20077;-70
2022/08/08 05:09:20;;;;;;;13.60;11.13;;;;;;;15.09;81.63;102436.66;5273025;28;20024;-70
2022/08/08 05:11:51;;;;;;;16.57;12.90;;;;;;;15.07;81.45;102422.69;5275462;28;20066;-69
2022/08/08 05:14:22;;;;;;;13.87;12.43;;;;;;;15.16;81.52;102426.63;5275229;28;20082;-70
2022/08/08 05:16:54;;;;;;;17.50;12.77;;;;;;;14.92;83.14;102434.94;5275453;28;20021;-70
2022/08/08 05:19:26;;;;;;;18.40;13.80;;;;;;;14.78;85.36;102438.25;5274754;28;20283;-70
2022/08/08 05:21:57;;;;;;;16.73;14.87;;;;;;;14.84;86.16;102442.38;5275712;28;20028;-70
2022/08/08 05:24:28;;;;;;;16.43;13.43;;;;;;;14.91;85.79;102445.53;5273860;28;20017;-70
2022/08/08 05:26:59;;;;;;;16.63;11.83;;;;;;;15.00;85.29;102424.81;5275423;28;20024;-69
2022/08/08 05:29:31;;;;;;;13.07;11.20;;;;;;;15.22;84.39;102443.91;5274534;28;20460;-70
2022/08/08 05:32:04;;;;;;;15.97;12.13;;;;;;;15.23;84.14;102438.56;5275362;28;20287;-70
2022/08/08 05:34:41;;;;;;;15.27;11.85;;;;;;;15.11;86.08;102447.13;5274837;28;20025;-70
2022/08/08 05:37:17;;;;;;;13.90;10.17;;;;;;;15.22;85.52;102436.84;5275109;28;20113;-71
2022/08/08 05:39:54;;;;;;;11.03;9.93;;;;;;;15.17;85.39;102428.31;5272521;28;20481;-71
2022/08/08 05:42:41;;;;;;;14.60;10.77;;;;;;;15.16;87.29;102446.88;5274795;28;20071;-71
2022/08/08 05:45:12;;;;;;;18.07;11.03;;;;;;;15.07;88.55;102441.16;5275167;28;20059;-71
2022/08/08 05:47:45;;;;;;;13.63;10.43;;;;;;;15.17;88.29;102445.97;5274383;28;20119;-70
2022/08/08 05:50:17;;;;;;;12.87;10.07;;;;;;;15.26;87.65;102441.94;5275037;28;20202;-70
2022/08/08 05:52:48;;;;;;;13.93;10.40;;;;;;;15.28;87.76;102446.22;5274815;28;20111;-70
2022/08/08 05:55:20;;;;;;;12.17;10.87;;;;;;;15.36;87.19;102446.63;5273420;28;20016;-70
2022/08/08 05:57:52;;;;;;;12.73;11.30;;;;;;;15.32;88.66;102452.19;5274973;28;20024;-70
2022/08/08 06:00:28;;;;;;;12.90;10.77;;;;;;;15.35;88.76;102452.00;5274930;28;20039;-70
2022/08/08 06:03:09;;;;;;;15.03;11.23;;;;;;;15.44;88.31;102451.50;5290259;28;20035;-70
2022/08/08 06:05:54;;;;;;;12.03;10.63;;;;;;;15.55;87.18;102440.34;5274708;28;20020;-71
2022/08/08 06:08:51;;;;;;;14.10;10.65;;;;;;;15.69;86.18;102454.56;5273187;28;20041;-70
2022/08/08 06:11:23;;;;;;;11.07;9.97;;;;;;;15.55;88.48;102453.53;5272107;28;20029;-70
2022/08/08 06:13:54;;;;;;;15.13;10.60;;;;;;;15.57;88.23;102458.72;5273156;28;20093;-70
2022/08/08 06:16:26;;;;;;;15.90;11.13;;;;;;;15.59;89.05;102460.38;5274424;28;20037;-70
2022/08/08 06:19:00;;;;;;;12.53;9.77;;;;;;;15.67;88.41;102457.31;5274891;28;20131;-70
2022/08/08 06:21:31;;;;;;;14.57;10.90;;;;;;;15.74;88.51;102465.75;5274364;28;20036;-71
2022/08/08 06:24:05;;;;;;;13.50;10.37;;;;;;;15.81;88.12;102461.78;5289863;28;20036;-70
2022/08/08 06:26:42;;;;;;;11.73;9.35;;;;;;;15.81;88.38;102461.78;5274525;28;20020;-71
2022/08/08 06:29:17;;;;;;;12.10;9.43;;;;;;;15.91;87.66;102466.56;5289296;28;20039;-71
2022/08/08 06:31:50;;;;;;;10.70;9.37;;;;;;;15.97;87.16;102474.13;5274656;28;20029;-70
2022/08/08 06:34:28;;;;;;;11.07;8.90;;;;;;;16.03;87.45;102484.41;5272806;28;20033;-70
2022/08/08 06:37:01;;;;;;;18.17;9.87;;;;;;;15.95;87.87;102461.00;5274381;28;20048;-70
2022/08/08 06:39:34;;;;;;;12.57;9.33;;;;;;;16.08;86.79;102466.47;5273126;28;20028;-71
2022/08/08 06:42:08;;;;;;;12.27;9.70;;;;;;;16.23;86.08;102478.91;5272956;28;20021;-72
2022/08/08 06:44:41;;;;;;;12.02;9.77;;;;;;;16.20;87.56;102478.13;5273757;28;20086;-71
2022/08/08 06:47:12;;;;;;;12.87;9.27;;;;;;;16.21;87.29;102471.91;5274150;28;20050;-71
2022/08/08 06:49:46;;;;;;;14.27;9.23;;;;;;;16.26;87.42;102481.34;5272991;28;20025;-73
2022/08/08 06:52:18;;;;;;;15.18;9.18;;;;;;;16.46;84.92;102482.81;5273949;28;20035;-70
2022/08/08 06:54:49;;;;;;;11.50;8.17;;;;;;;16.49;86.04;102484.44;5273278;28;20075;-70
2022/08/08 06:57:23;;;;;;;14.60;8.73;;;;;;;16.60;85.91;102482.00;5273999;28;20143;-69
2022/08/08 06:59:55;;;;;;;13.95;8.57;;;;;;;16.71;85.60;102488.44;5289453;28;20473;-70
2022/08/08 07:02:30;;;;;;;11.13;9.10;;;;;;;16.79;84.28;102483.56;5272651;28;20027;-70
2022/08/08 07:05:01;;;;;;;14.03;8.63;;;;;;;16.90;84.95;102488.19;5273285;28;20036;-70
2022/08/08 07:07:51;;;;;;;13.37;8.00;;;;;;;17.01;82.44;102490.19;5275178;28;20021;-70
2022/08/08 07:10:24;;;;;;;11.83;7.83;;;;;;;17.13;81.38;102489.47;5276895;28;20024;-70
2022/08/08 07:13:05;;;;;;;13.80;7.63;;;;;;;17.24;80.47;102480.00;5277399;28;20024;-70
2022/08/08 07:15:46;;;;;;;10.67;7.23;;;;;;;17.40;79.28;102490.50;5277573;28;20025;-70
2022/08/08 07:18:32;;;;;;;9.73;7.40;;;;;;;17.59;78.04;102489.31;5277284;28;20074;-70
2022/08/08 07:21:07;;;;;;;12.87;7.00;;;;;;;17.90;74.97;102497.94;5277269;28;20021;-69
2022/08/08 07:23:50;;;;;;;13.70;6.67;;;;;;;18.25;73.85;102500.09;5277435;28;20021;-70
2022/08/08 07:26:24;;;;;;;8.50;5.83;;;;;;;18.56;71.84;102510.44;5275165;28;20025;-68
2022/08/08 07:28:57;;;;;;;10.13;5.40;;;;;;;18.94;69.57;102491.97;5277507;28;20024;-70
2022/08/08 07:31:29;;;;;;;9.77;5.10;;;;;;;19.31;67.56;102488.56;5276933;28;20025;-69
2022/08/08 07:34:01;;;;;;;7.30;4.20;;;;;;;20.01;64.69;102496.84;5276146;28;20032;-70
2022/08/08 07:36:33;;;;;;;14.13;4.60;;;;;;;20.18;63.06;102494.75;5276759;28;20639;-70
2022/08/08 07:39:06;;;;;;;7.57;4.30;;;;;;;20.28;62.12;102494.91;5276412;28;20477;-70
2022/08/08 07:41:40;;;;;;;8.40;4.20;;;;;;;20.52;60.36;102500.19;5276751;28;20036;-70
2022/08/08 07:44:13;;;;;;;9.00;3.80;;;;;;;20.97;59.56;102493.25;5277391;28;20457;-70
2022/08/08 07:46:45;;;;;;;8.88;4.47;;;;;;;21.68;57.90;102503.72;5276979;28;20039;-71
2022/08/08 07:49:16;;;;;;;11.23;3.45;;;;;;;22.06;56.10;102493.53;5276593;28;20024;-70
2022/08/08 07:51:49;;;;;;;14.00;4.32;;;;;;;22.65;54.54;102499.31;5276990;28;20052;-69
2022/08/08 07:54:32;;;;;;;12.07;3.08;;;;;;;23.40;53.05;102500.84;5274505;28;20067;-71
2022/08/08 07:57:15;;;;;;;7.30;3.97;;;;;;;23.75;52.82;102500.50;5276978;28;20033;-70
2022/08/08 08:00:05;;;;;;;8.23;3.03;;;;;;;23.91;52.61;102506.13;5277065;28;20756;-71
2022/08/08 08:02:58;;;;;;;6.07;3.00;;;;;;;24.20;49.88;102508.97;5292301;28;20108;-73
2022/08/08 08:05:35;;;;;;;7.28;3.17;;;;;;;24.46;47.49;102519.06;5276372;28;20114;-71
2022/08/08 08:08:11;;;;;;;4.88;2.45;;;;;;;24.65;49.02;102516.38;5276287;28;20059;-71
2022/08/08 08:10:44;;;;;;;7.13;2.47;;;;;;;25.27;45.78;102500.78;5275770;28;20465;-72
2022/08/08 08:13:35;;;;;;;7.05;2.67;;;;;;;26.16;45.72;102510.88;5275842;28;20507;-71
2022/08/08 08:16:10;;;;;;;8.70;2.83;;;;;;;26.23;43.94;102521.81;5276769;28;20028;-71
2022/08/08 08:19:05;;;;;;;6.30;2.03;;;;;;;26.49;43.33;102512.97;5275683;28;20085;-72
2022/08/08 08:21:42;;;;;;;8.40;2.30;;;;;;;27.11;42.92;102526.38;5274908;28;20110;-72
2022/08/08 08:24:14;;;;;;;4.38;2.10;;;;;;;27.15;40.69;102528.59;5275640;28;20541;-72
2022/08/08 08:26:46;;;;;;;6.85;1.85;;;;;;;27.26;40.14;102515.88;5276867;28;20058;-73
2022/08/08 08:29:17;;;;;;;5.97;1.88;;;;;;;27.78;39.21;102533.66;5276430;28;20032;-70
2022/08/08 08:31:48;;;;;;;5.22;2.50;;;;;;;27.73;38.17;102522.56;5275077;28;20074;-71
2022/08/08 08:34:19;;;;;;;5.05;1.77;;;;;;;28.21;38.30;102527.25;5291355;28;20388;-71
2022/08/08 08:36:51;;;;;;;5.10;1.88;;;;;;;28.39;37.86;102528.97;5276531;28;20383;-71
2022/08/08 08:39:22;;;;;;;5.00;1.60;;;;;;;27.87;37.35;102533.66;5290204;28;20086;-71
2022/08/08 08:41:55;;;;;;;7.28;1.55;;;;;;;28.44;36.84;102528.44;5276605;28;20488;-72
2022/08/08 08:44:27;;;;;;;4.35;1.77;;;;;;;28.71;37.02;102534.44;5276103;28;20067;-72
2022/08/08 08:47:01;;;;;;;6.25;1.73;;;;;;;28.94;36.22;102529.13;5276435;28;20028;-73
2022/08/08 08:49:33;;;;;;;6.72;1.58;;;;;;;29.79;35.09;102531.25;5276290;28;20052;-72
2022/08/08 08:52:06;;;;;;;4.63;1.60;;;;;;;30.06;34.66;102523.59;5276533;28;20067;-72
2022/08/08 08:54:38;;;;;;;4.93;1.52;;;;;;;30.37;33.69;102531.78;5275102;28;20056;-72
2022/08/08 08:57:09;;;;;;;4.72;1.42;;;;;;;30.02;33.30;102535.75;5276218;28;20067;-72
2022/08/08 08:59:43;;;;;;;4.05;1.30;;;;;;;29.44;33.42;102544.25;5275920;28;20056;-72
2022/08/08 09:02:23;;;;;;;5.47;1.58;;;;;;;30.65;32.14;102540.06;5275303;28;20024;-72
2022/08/08 09:04:58;;;;;;;4.55;1.40;;;;;;;30.60;31.63;102538.97;5275668;28;20028;-72
2022/08/08 09:07:33;;;;;;;4.22;1.55;;;;;;;31.50;31.77;102541.59;5290940;28;20120;-71
2022/08/08 09:10:05;;;;;;;7.65;1.98;;;;;;;30.86;30.75;102535.00;5274351;28;20393;-71
2022/08/08 09:12:37;;;;;;;5.47;1.58;;;;;;;31.10;30.86;102536.53;5275026;28;20039;-72
2022/08/08 09:15:09;;;;;;;3.30;1.40;;;;;;;31.48;30.12;102537.38;5273889;28;20512;-72
2022/08/08 09:17:41;;;;;;;8.45;1.70;;;;;;;31.94;29.83;102529.91;5275046;28;20116;-72
2022/08/08 09:20:15;;;;;;;4.30;1.45;;;;;;;32.56;28.93;102538.31;5275116;28;20028;-72
2022/08/08 09:22:46;;;;;;;6.97;1.35;;;;;;;32.79;27.87;102536.31;5275444;28;20544;-73
2022/08/08 09:25:18;;;;;;;3.70;1.42;;;;;;;33.63;27.73;102540.75;5289388;28;20162;-73
2022/08/08 09:27:51;;;;;;;4.40;1.40;;;;;;;32.49;28.40;102537.38;5274138;28;20033;-72
2022/08/08 09:30:24;;;;;;;5.20;1.50;;;;;;;32.86;27.97;102537.19;5274191;28;20020;-72
2022/08/08 09:32:57;;;;;;;4.38;1.30;;;;;;;32.56;27.83;102540.16;5274808;28;20033;-71
2022/08/08 09:35:32;;;;;;;6.30;1.63;;;;;;;33.00;28.72;102543.50;5274775;28;20035;-71
2022/08/08 09:38:07;;;;;;;3.50;1.02;;;;;;;33.53;27.23;102544.72;5275356;28;20036;-72
2022/08/08 09:40:41;;;;;;;4.72;1.73;;;;;;;33.34;27.12;102545.53;5274051;28;20024;-72
2022/08/08 09:43:23;;;;;;;4.18;1.08;;;;;;;34.50;26.93;102539.91;5273770;28;20416;-72
2022/08/08 09:46:03;;;;;;;4.25;1.05;;;;;;;34.87;25.97;102533.97;5274908;28;20067;-72
2022/08/08 09:48:37;;;;;;;4.93;1.45;;;;;;;33.89;25.93;102539.13;5274767;28;20354;-72
2022/08/08 09:51:08;;;;;;;4.13;1.15;;;;;;;33.64;26.10;102528.84;5275744;28;20459;-70
2022/08/08 09:53:48;;;;;;;6.00;1.30;;;;;;;34.46;26.43;102527.78;5273824;28;20120;-72
2022/08/08 09:56:20;;;;;;;5.13;1.25;;;;;;;34.31;26.42;102538.06;5290177;28;20431;-72
2022/08/08 09:59:01;;;;;;;2.10;0.82;;;;;;;34.21;26.09;102525.75;5274971;28;20108;-72
2022/08/08 10:01:36;;;;;;;3.45;0.90;;;;;;;33.09;27.23;102536.03;5274717;28;20623;-71
2022/08/08 10:04:13;;;;;;;5.32;1.27;;;;;;;33.01;27.90;102533.50;5274936;28;20540;-71
2022/08/08 10:06:46;;;;;;;3.53;1.10;;;;;;;32.15;28.42;102539.91;5274708;28;20028;-71
2022/08/08 10:09:29;;;;;;;2.80;0.98;;;;;;;32.13;29.20;102541.09;5273307;28;20450;-73
2022/08/08 10:12:01;;;;;;;5.30;1.10;;;;;;;31.97;28.75;102540.34;5274483;28;20085;-71
2022/08/08 10:14:34;;;;;;;6.00;1.27;;;;;;;32.72;28.94;102536.28;5274094;28;20044;-72
2022/08/08 10:17:08;;;;;;;4.82;1.40;;;;;;;33.16;28.29;102536.09;5274359;28;20070;-72
2022/08/08 10:19:41;;;;;;;3.72;1.45;;;;;;;32.77;28.25;102533.81;5274373;28;20066;-72
2022/08/08 10:22:18;;;;;;;4.20;1.02;;;;;;;33.07;28.18;102519.97;5274537;28;20026;-72
2022/08/08 10:24:57;;;;;;;4.45;1.30;;;;;;;34.04;27.07;102530.75;5289376;28;20039;-72
2022/08/08 10:27:39;;;;;;;3.50;1.17;;;;;;;34.34;26.72;102524.88;5273936;28;20735;-71
2022/08/08 10:30:11;;;;;;;3.90;1.10;;;;;;;33.83;26.07;102524.50;5274631;28;20029;-73
2022/08/08 10:32:49;;;;;;;3.13;1.47;;;;;;;35.15;25.31;102522.91;5272748;28;20103;-72
2022/08/08 10:35:26;;;;;;;4.00;1.33;;;;;;;34.92;24.75;102521.56;5273840;28;20140;-72
2022/08/08 10:38:00;;;;;;;1.88;0.93;;;;;;;35.32;23.17;102517.81;5274261;28;20402;-72
2022/08/08 10:40:32;;;;;;;3.83;0.95;;;;;;;34.57;24.94;102517.28;5273487;28;20029;-73
2022/08/08 10:43:04;;;;;;;4.63;1.27;;;;;;;34.69;24.93;102521.00;5278342;28;20017;-72
2022/08/08 10:45:49;;;;;;;2.45;0.70;;;;;;;34.90;24.91;102524.50;5278176;28;20032;-72
2022/08/08 10:48:33;;;;;;;2.63;0.88;;;;;;;35.01;25.06;102514.84;5277982;28;20143;-72
2022/08/08 10:51:13;;;;;;;3.17;1.05;;;;;;;34.49;25.66;102521.09;5278081;28;20420;-71
2022/08/08 10:53:51;;;;;;;4.63;1.10;;;;;;;35.35;24.61;102529.09;5277561;28;20562;-73
2022/08/08 10:56:22;;;;;;;4.68;1.45;;;;;;;33.87;26.21;102520.31;5277895;28;20040;-72
2022/08/08 10:59:00;;;;;;;3.60;1.43;;;;;;;33.18;27.02;102529.41;5277968;28;20389;-72
2022/08/08 11:01:31;;;;;;;3.33;0.80;;;;;;;32.78;26.97;102521.91;5277819;28;20024;-72
2022/08/08 11:04:07;;;;;;;4.35;0.98;;;;;;;32.51;27.05;102512.78;5278293;28;20032;-73
2022/08/08 11:06:38;;;;;;;2.92;0.85;;;;;;;32.71;27.46;102524.59;5276709;28;20115;-72
2022/08/08 11:09:10;;;;;;;3.38;1.10;;;;;;;32.00;27.93;102518.28;5276526;28;20111;-73
2022/08/08 11:11:45;;;;;;;3.72;1.00;;;;;;;32.32;27.91;102510.63;5277626;28;20020;-73
2022/08/08 11:14:16;;;;;;;2.40;0.77;;;;;;;32.18;28.21;102514.25;5275758;28;20051;-73
2022/08/08 11:16:48;;;;;;;4.05;0.90;;;;;;;31.84;28.51;102524.78;5277926;28;20021;-72
2022/08/08 11:19:23;;;;;;;4.88;1.10;;;;;;;32.05;28.40;102520.44;5277092;28;20028;-73
2022/08/08 11:21:55;;;;;;;2.28;0.80;;;;;;;32.21;27.52;102508.44;5277441;28;20116;-73
2022/08/08 11:24:27;;;;;;;3.25;0.88;;;;;;;31.62;28.68;102520.25;5275448;28;20116;-74
2022/08/08 11:27:02;;;;;;;3.90;0.90;;;;;;;31.22;29.36;102506.25;5276301;28;20021;-71
2022/08/08 11:29:35;;;;;;;4.38;1.17;;;;;;;30.75;29.27;102503.81;5277070;28;20024;-73
2022/08/08 11:32:08;;;;;;;3.05;0.77;;;;;;;30.96;29.40;102513.03;5277308;28;20504;-73
2022/08/08 11:34:42;;;;;;;2.40;0.85;;;;;;;30.78;29.25;102506.97;5276846;28;20024;-69
2022/08/08 11:37:14;;;;;;;5.82;1.13;;;;;;;30.46;30.58;102502.81;5274378;28;20026;-71
2022/08/08 11:39:49;;;;;;;4.60;0.95;;;;;;;30.49;30.18;102500.56;5272234;28;20032;-72
2022/08/08 11:42:23;;;;;;;3.80;0.80;;;;;;;30.29;30.31;102498.41;5262486;28;20113;-69
2022/08/08 11:44:56;;;;;;;3.38;1.05;;;;;;;30.51;30.25;102489.56;5266747;28;20032;-69
2022/08/08 11:47:28;;;;;;;4.25;1.27;;;;;;;30.14;30.01;102506.47;5280633;28;20506;-70
2022/08/08 11:50:03;;;;;;;4.13;0.80;;;;;;;30.83;29.72;102498.31;5276923;28;20028;-69
2022/08/08 11:52:35;;;;;;;3.90;0.88;;;;;;;30.83;29.57;102497.47;5271812;28;20035;-70
2022/08/08 11:55:36;;;;;;;5.68;1.10;;;;;;;31.33;29.17;102494.09;5263122;28;20024;-70
2022/08/08 11:58:11;;;;;;;2.58;1.13;;;;;;;30.49;29.97;102488.91;5296590;28;20669;-71
2022/08/08 12:00:51;;;;;;;1.85;0.63;;;;;;;31.06;29.34;102497.34;5279717;28;20035;-72
2022/08/08 12:03:25;;;;;;;2.40;0.70;;;;;;;30.53;29.01;102487.50;5275899;28;20024;-71
2022/08/08 12:05:56;;;;;;;4.15;0.82;;;;;;;30.74;29.24;102492.16;5276326;28;20488;-71
2022/08/08 12:08:33;;;;;;;1.88;0.65;;;;;;;31.09;28.13;102496.97;5275112;28;20087;-71
2022/08/08 12:11:18;;;;;;;2.30;0.68;;;;;;;31.33;28.32;102491.41;5276139;28;20021;-71
2022/08/08 12:13:49;;;;;;;4.82;0.80;;;;;;;31.09;28.06;102490.72;5276206;28;20064;-71
2022/08/08 12:16:21;;;;;;;2.53;1.08;;;;;;;31.04;27.22;102488.59;5273178;28;20021;-72